Terminal Aerodrome Forecast
Issued by NWS Charleston, SC

Home | Current Version | Previous Version | Text Only | Print | Product List | Glossary On
Versions: 1 2 3 4 5 6 7 8 9 10 11 12 13 14 15 16 17 18 19 20 21 22 23 24 25 26
000
FTUS42 KCHS 030535
TAFSAV
TAF
KSAV 030535Z 0306/0406 VRB03KT P6SM SCT025 BKN150
      TEMPO 0310/0313 6SM BR FEW003 BKN025
     FM031400 VRB05KT P6SM SCT030 BKN250=

USA.gov is the U.S. government's official web portal to all federal, state and local government web resources and services.